Rockford, Tennessee
Current Conditions -  °F | °C
As of 7:19 PM on Thursday 27 Nov 2014 (Local Time) from KTYS Reporting Station
Overcast Overcast  
Wind Chill: 25°   Ceiling: 2800
Heat Index: 33°   Visibility: 10mi
Dew Point: 24°   Wind: 9mph
Humidity: 70%   Direction: 270°W
Pressure: 30.39"   Gusts: NA
Location:  35.83°N, 83.94°W
Report Text: KTYS 280019Z 27008KT 10SM BKN028 OVC041 01/M04 A3039 RMK AO2 T00061044
Loading
Personal Weather Stations






























Interactive Weather Map New forecast layout! Learn more

10-Day Weather Forecast

Advertisements
Track Severe Weather on mobile